Time;durP1;ratioP1;P1;durP2;ratioP2;P2;SDS_P1;SDS_P2;PMS_P1;PMS_P2;Temp;Humidity;BMP_temperature;BMP_pressure;BME280_temperature;BME280_humidity;BME280_pressure;Samples;Min_cycle;Max_cycle;Signal;HPM_P1;HPM_P2
2022/12/03 00:02:13;;;;;;;35.35;14.93;;;;;;;1.73;90.43;98371.22;5004137;28;20030;-81
2022/12/03 00:04:38;;;;;;;38.60;15.77;;;;;;;1.62;90.18;98356.69;5005077;28;20030;-80
2022/12/03 00:07:04;;;;;;;33.35;14.70;;;;;;;1.61;90.24;98361.00;5005305;28;20168;-80
2022/12/03 00:09:30;;;;;;;35.38;16.65;;;;;;;1.58;90.56;98365.66;5004179;28;20041;-80
2022/12/03 00:11:55;;;;;;;31.65;14.95;;;;;;;1.54;90.51;98361.69;5003782;28;20022;-80
2022/12/03 00:14:21;;;;;;;35.95;16.17;;;;;;;1.59;90.87;98367.28;5002940;28;20493;-80
2022/12/03 00:16:46;;;;;;;34.78;15.98;;;;;;;1.73;90.81;98364.28;5004867;28;20068;-80
2022/12/03 00:19:12;;;;;;;33.85;15.80;;;;;;;1.69;90.20;98355.19;5001034;28;20546;-80
2022/12/03 00:21:37;;;;;;;34.65;15.40;;;;;;;1.74;90.26;98363.34;5003288;28;20070;-80
2022/12/03 00:24:03;;;;;;;34.60;15.43;;;;;;;1.68;90.06;98361.31;5001910;28;20064;-80
2022/12/03 00:26:29;;;;;;;35.65;15.00;;;;;;;1.77;90.40;98360.47;5003221;28;20569;-80
2022/12/03 00:28:56;;;;;;;37.25;16.30;;;;;;;1.81;89.62;98361.03;5004207;28;20042;-80
2022/12/03 00:31:22;;;;;;;35.35;15.43;;;;;;;1.70;89.55;98359.38;5004586;28;20397;-81
2022/12/03 00:33:50;;;;;;;38.95;15.70;;;;;;;1.68;89.98;98358.72;5004395;28;20082;-80
2022/12/03 00:36:17;;;;;;;34.22;15.20;;;;;;;1.71;90.34;98358.44;5001026;28;20026;-80
2022/12/03 00:38:42;;;;;;;35.22;14.98;;;;;;;1.87;90.50;98355.28;5004166;28;20038;-81
2022/12/03 00:41:08;;;;;;;34.90;15.30;;;;;;;1.92;89.90;98354.84;5005262;28;20049;-80
2022/12/03 00:43:34;;;;;;;35.33;15.70;;;;;;;2.00;89.36;98360.19;5004122;28;20033;-80
2022/12/03 00:45:59;;;;;;;34.25;16.00;;;;;;;2.12;89.31;98353.88;5003206;28;20107;-80
2022/12/03 00:48:25;;;;;;;35.72;14.95;;;;;;;2.09;88.73;98359.31;5003404;28;20092;-81
2022/12/03 00:50:50;;;;;;;32.70;15.27;;;;;;;2.16;88.35;98355.25;5002670;28;20467;-81
2022/12/03 00:53:16;;;;;;;33.63;14.20;;;;;;;2.11;87.08;98352.25;5003592;28;20121;-81
2022/12/03 00:55:41;;;;;;;35.67;15.18;;;;;;;2.09;87.51;98354.97;5002212;28;20078;-81
2022/12/03 00:58:08;;;;;;;35.17;15.02;;;;;;;2.02;87.64;98363.44;5003090;28;20370;-80
2022/12/03 01:00:34;;;;;;;33.50;15.38;;;;;;;1.92;87.83;98363.47;5001500;28;20048;-81
2022/12/03 01:03:00;;;;;;;32.55;14.80;;;;;;;1.83;89.03;98362.50;5002568;28;20125;-80
2022/12/03 01:05:26;;;;;;;30.75;14.27;;;;;;;1.79;89.62;98362.91;5002397;28;20117;-80
2022/12/03 01:07:51;;;;;;;36.47;14.43;;;;;;;1.77;89.65;98373.41;5001884;28;20061;-81
2022/12/03 01:10:17;;;;;;;34.25;16.10;;;;;;;1.82;89.62;98363.47;5003794;28;20034;-81
2022/12/03 01:12:43;;;;;;;36.30;16.23;;;;;;;1.78;89.76;98351.75;5002130;28;20405;-81
2022/12/03 01:15:09;;;;;;;35.92;14.50;;;;;;;1.80;89.56;98362.78;5003699;28;20485;-81
2022/12/03 01:17:36;;;;;;;31.70;13.85;;;;;;;1.71;90.27;98353.25;5005121;28;20049;-80
2022/12/03 01:20:04;;;;;;;35.97;16.63;;;;;;;1.76;90.51;98360.63;5003220;28;20030;-80
2022/12/03 01:22:29;;;;;;;37.60;16.00;;;;;;;1.87;89.90;98355.28;5003524;28;20042;-81
2022/12/03 01:24:55;;;;;;;33.95;14.73;;;;;;;1.97;89.80;98344.91;5003684;28;20026;-81
2022/12/03 01:27:21;;;;;;;31.90;15.23;;;;;;;2.11;88.88;98365.19;5003827;28;20160;-81
2022/12/03 01:29:46;;;;;;;30.33;14.10;;;;;;;2.16;88.67;98360.44;5002781;28;20029;-81
2022/12/03 01:32:18;;;;;;;30.95;15.45;;;;;;;2.19;87.92;98359.31;5002013;28;20034;-81
2022/12/03 01:34:50;;;;;;;32.78;15.40;;;;;;;2.37;88.51;98363.63;4999930;28;20033;-81
2022/12/03 01:37:18;;;;;;;31.73;14.82;;;;;;;2.47;86.97;98365.38;5002406;28;20034;-81
2022/12/03 01:39:44;;;;;;;30.60;14.38;;;;;;;2.52;87.36;98368.34;5005170;28;20053;-82
2022/12/03 01:42:21;;;;;;;32.80;14.55;;;;;;;2.57;86.75;98363.53;5005855;28;20474;-81
2022/12/03 01:44:57;;;;;;;33.97;14.75;;;;;;;2.62;86.67;98366.53;5004210;28;20033;-81
2022/12/03 01:47:36;;;;;;;30.83;14.40;;;;;;;2.76;86.41;98365.22;5004164;28;20041;-81
2022/12/03 01:50:22;;;;;;;34.05;15.38;;;;;;;2.78;85.16;98366.75;5003506;28;20117;-81
2022/12/03 01:52:48;;;;;;;29.67;14.75;;;;;;;2.79;85.10;98358.00;5000593;28;20030;-82
2022/12/03 01:55:19;;;;;;;33.08;14.73;;;;;;;2.69;83.97;98362.41;5004541;28;20064;-82
2022/12/03 01:57:51;;;;;;;34.30;15.70;;;;;;;2.54;85.98;98361.25;5003750;28;20041;-81
2022/12/03 02:00:22;;;;;;;33.33;14.88;;;;;;;2.63;85.52;98365.56;4997201;28;20429;-81
2022/12/03 02:02:53;;;;;;;29.38;14.05;;;;;;;2.67;85.56;98365.16;5005951;28;20041;-81
2022/12/03 02:05:23;;;;;;;35.42;15.43;;;;;;;2.51;85.27;98369.28;5001516;28;20049;-81
2022/12/03 02:07:49;;;;;;;30.45;14.25;;;;;;;2.53;85.73;98367.41;5002326;28;20061;-82
2022/12/03 02:10:22;;;;;;;30.77;14.88;;;;;;;2.61;86.56;98372.66;5001154;28;20030;-81
2022/12/03 02:13:03;;;;;;;32.53;14.68;;;;;;;2.67;86.27;98359.97;5002550;28;20030;-82
2022/12/03 02:15:29;;;;;;;33.15;15.07;;;;;;;2.77;85.41;98370.28;5003800;28;20595;-82
2022/12/03 02:17:56;;;;;;;33.22;14.27;;;;;;;2.85;85.00;98362.59;5001877;28;20030;-81
2022/12/03 02:20:22;;;;;;;36.45;15.52;;;;;;;2.93;84.75;98360.09;5003227;28;20057;-81
2022/12/03 02:23:10;;;;;;;32.85;14.63;;;;;;;2.86;84.24;98372.00;5001041;28;20026;-81
2022/12/03 02:25:36;;;;;;;29.20;13.57;;;;;;;2.86;84.46;98366.00;5003429;28;20040;-81
2022/12/03 02:28:05;;;;;;;33.88;14.82;;;;;;;2.89;84.29;98369.16;5000442;28;20426;-81
2022/12/03 02:30:31;;;;;;;31.15;13.82;;;;;;;2.71;83.91;98360.50;5001372;28;20072;-82
2022/12/03 02:32:58;;;;;;;30.27;14.98;;;;;;;2.84;84.73;98373.13;5003800;28;20041;-82
2022/12/03 02:35:30;;;;;;;33.10;15.10;;;;;;;2.78;84.09;98368.50;5001269;28;20084;-82
2022/12/03 02:38:09;;;;;;;30.00;13.57;;;;;;;2.68;84.60;98360.78;5003793;28;20064;-81
2022/12/03 02:40:35;;;;;;;35.67;14.77;;;;;;;2.69;84.10;98373.56;5001248;28;20064;-82
2022/12/03 02:43:03;;;;;;;35.67;15.52;;;;;;;2.73;83.49;98371.53;5001407;28;20468;-82
2022/12/03 02:45:38;;;;;;;31.35;14.95;;;;;;;2.83;84.32;98371.50;5003716;28;20133;-82
2022/12/03 02:48:19;;;;;;;33.58;15.00;;;;;;;2.92;84.33;98379.19;4999402;28;20083;-82
2022/12/03 02:50:52;;;;;;;33.13;14.55;;;;;;;2.92;83.81;98368.03;5001365;28;20038;-82
2022/12/03 02:53:25;;;;;;;35.10;15.40;;;;;;;2.92;84.05;98366.25;5006633;28;20501;-82
2022/12/03 02:55:53;;;;;;;35.83;15.27;;;;;;;2.98;84.32;98372.63;5005455;28;20045;-81
2022/12/03 02:58:22;;;;;;;33.15;15.13;;;;;;;3.05;84.15;98367.69;5001559;28;20033;-81
2022/12/03 03:00:50;;;;;;;30.13;14.15;;;;;;;2.94;83.36;98377.31;5000634;28;20030;-82
2022/12/03 03:03:17;;;;;;;29.27;14.45;;;;;;;2.91;83.85;98377.56;5002233;28;20932;-81
2022/12/03 03:05:45;;;;;;;34.15;15.38;;;;;;;2.82;83.92;98373.28;4999599;28;20478;-82
2022/12/03 03:08:12;;;;;;;34.45;15.50;;;;;;;2.64;83.59;98356.88;5001778;28;20031;-82
2022/12/03 03:10:41;;;;;;;36.25;15.60;;;;;;;2.69;84.79;98377.94;5002302;28;20022;-82
2022/12/03 03:13:12;;;;;;;32.03;14.13;;;;;;;2.50;85.41;98370.25;5000544;28;20418;-82
2022/12/03 03:15:41;;;;;;;31.88;14.63;;;;;;;2.50;86.19;98370.25;5001350;28;20034;-82
2022/12/03 03:18:09;;;;;;;30.73;13.95;;;;;;;2.46;85.90;98374.06;5004378;28;20030;-81
2022/12/03 03:20:37;;;;;;;31.15;15.40;;;;;;;2.40;85.53;98373.72;5006309;28;20030;-82
2022/12/03 03:23:12;;;;;;;31.57;14.13;;;;;;;2.36;85.63;98366.34;5006650;28;20069;-81
2022/12/03 03:25:41;;;;;;;28.95;13.95;;;;;;;2.34;86.34;98363.06;5006038;28;20030;-81
2022/12/03 03:28:07;;;;;;;34.60;15.43;;;;;;;2.48;86.60;98374.78;5004869;28;20049;-81
2022/12/03 03:30:35;;;;;;;31.17;14.65;;;;;;;2.63;86.55;98368.16;5004501;28;20060;-82
2022/12/03 03:33:01;;;;;;;32.00;14.80;;;;;;;2.73;85.44;98366.34;5007589;28;20034;-82
2022/12/03 03:35:27;;;;;;;36.58;15.65;;;;;;;2.87;86.02;98368.44;5002229;28;20532;-81
2022/12/03 03:37:55;;;;;;;30.45;14.52;;;;;;;2.88;84.51;98372.69;5004828;28;20776;-81
2022/12/03 03:40:21;;;;;;;30.40;14.07;;;;;;;2.64;84.58;98360.25;5007857;28;20540;-81
2022/12/03 03:42:47;;;;;;;32.72;14.85;;;;;;;2.57;84.29;98363.53;5005345;28;20046;-82
2022/12/03 03:45:14;;;;;;;31.45;13.98;;;;;;;2.60;85.59;98368.47;5005821;28;20065;-82
2022/12/03 03:47:41;;;;;;;34.22;15.68;;;;;;;2.66;85.96;98373.06;5004884;28;20118;-81
2022/12/03 03:50:10;;;;;;;36.53;15.80;;;;;;;2.80;85.87;98370.00;5007169;28;20072;-81
2022/12/03 03:52:38;;;;;;;31.88;15.27;;;;;;;2.93;85.38;98375.66;5003659;28;20386;-81
2022/12/03 03:55:06;;;;;;;33.90;15.27;;;;;;;2.99;84.77;98363.88;5005882;28;20038;-81
2022/12/03 03:57:32;;;;;;;32.00;14.73;;;;;;;3.08;84.62;98370.00;5005035;28;20487;-81
2022/12/03 03:59:58;;;;;;;34.00;15.25;;;;;;;3.14;84.66;98367.63;5004434;28;20541;-81
2022/12/03 04:02:26;;;;;;;32.20;14.55;;;;;;;3.20;84.47;98368.84;5002764;28;20385;-81
2022/12/03 04:04:52;;;;;;;30.63;14.43;;;;;;;3.23;84.10;98365.94;5018550;28;20030;-82
2022/12/03 04:07:18;;;;;;;32.20;14.05;;;;;;;3.29;84.18;98362.75;5004414;28;20030;-81
2022/12/03 04:09:44;;;;;;;31.75;14.48;;;;;;;3.27;83.63;98362.09;5006137;28;20042;-82
2022/12/03 04:14:56;;;;;;;33.55;13.68;;;;;;;3.16;82.95;98351.94;5001006;28;20034;-82
2022/12/03 04:17:22;;;;;;;29.88;13.63;;;;;;;3.19;83.32;98354.25;5002637;28;20056;-81
2022/12/03 04:19:48;;;;;;;28.75;14.07;;;;;;;3.17;82.37;98361.34;5003829;28;20037;-82
2022/12/03 04:30:26;;;;;;;32.88;14.82;;;;;;;3.26;82.32;98355.28;5003008;28;20769;-82
2022/12/03 04:35:42;;;;;;;33.03;14.57;;;;;;;3.20;83.05;98350.69;5002475;28;20414;-81
2022/12/03 04:38:14;;;;;;;31.90;14.93;;;;;;;3.11;82.90;98347.19;5002711;28;20038;-82
2022/12/03 04:40:59;;;;;;;33.53;14.98;;;;;;;3.07;83.52;98351.03;5005009;28;20030;-81
2022/12/03 04:43:27;;;;;;;32.42;14.70;;;;;;;3.10;83.91;98344.75;5002220;28;20076;-81
2022/12/03 04:45:52;;;;;;;33.85;14.50;;;;;;;3.02;83.78;98342.06;5004961;28;20034;-81
2022/12/03 04:48:18;;;;;;;30.60;14.50;;;;;;;2.93;82.80;98347.16;5007856;28;20034;-82
2022/12/03 04:50:43;;;;;;;28.15;14.15;;;;;;;2.92;83.27;98342.13;5006575;28;20160;-81
2022/12/03 04:53:09;;;;;;;31.10;14.35;;;;;;;2.86;83.18;98335.75;5006451;28;20029;-81
2022/12/03 04:55:34;;;;;;;30.45;14.10;;;;;;;2.88;83.33;98339.03;5005635;28;20697;-81
2022/12/03 04:58:00;;;;;;;27.63;13.30;;;;;;;2.79;83.16;98339.06;5004196;28;20092;-81
2022/12/03 05:00:26;;;;;;;28.77;13.52;;;;;;;2.78;83.16;98345.22;5002353;28;20031;-81
2022/12/03 05:02:54;;;;;;;28.98;13.48;;;;;;;2.73;83.48;98342.22;5002521;28;20034;-81
2022/12/03 05:05:20;;;;;;;29.98;13.88;;;;;;;2.76;84.40;98332.41;5003569;28;20118;-81
2022/12/03 05:07:45;;;;;;;31.58;13.93;;;;;;;2.79;83.63;98352.81;5003818;28;20037;-82
2022/12/03 05:10:11;;;;;;;34.40;14.82;;;;;;;2.70;83.18;98330.41;5003457;28;20036;-81
2022/12/03 05:12:37;;;;;;;34.42;15.18;;;;;;;2.69;83.81;98331.31;5001993;28;20065;-82
2022/12/03 05:15:05;;;;;;;30.30;13.93;;;;;;;2.73;83.06;98335.25;5001902;28;20032;-81
2022/12/03 05:17:30;;;;;;;32.55;14.75;;;;;;;2.73;83.57;98329.28;5003515;28;20037;-81
2022/12/03 05:22:40;;;;;;;29.42;13.23;;;;;;;2.75;83.74;98328.16;5000483;28;20030;-81
2022/12/03 05:25:06;;;;;;;34.10;14.73;;;;;;;2.83;83.85;98325.69;5002919;28;20118;-81
2022/12/03 05:27:32;;;;;;;30.70;14.48;;;;;;;2.70;83.50;98322.63;5001147;28;20304;-81
2022/12/03 05:29:58;;;;;;;29.52;12.88;;;;;;;2.68;83.85;98334.88;5003682;28;20517;-82
2022/12/03 05:32:23;;;;;;;31.60;13.93;;;;;;;2.77;84.33;98334.03;5004272;28;20068;-82
2022/12/03 05:34:49;;;;;;;31.80;13.65;;;;;;;2.71;84.37;98321.66;4999930;28;20079;-82
2022/12/03 05:37:14;;;;;;;27.83;13.07;;;;;;;2.77;83.16;98322.84;5004312;28;20022;-82
2022/12/03 05:39:40;;;;;;;31.27;13.57;;;;;;;2.79;83.48;98324.31;5002059;28;20026;-81
2022/12/03 05:44:50;;;;;;;25.48;12.52;;;;;;;2.92;83.45;98329.16;5004724;28;20113;-81
2022/12/03 05:47:15;;;;;;;25.90;12.80;;;;;;;2.81;82.99;98325.00;5002038;28;20033;-82
2022/12/03 05:49:41;;;;;;;30.75;13.25;;;;;;;2.76;83.43;98322.03;5001348;28;20489;-81
2022/12/03 05:52:06;;;;;;;29.52;12.85;;;;;;;2.81;83.66;98322.41;5004217;28;20141;-81
2022/12/03 05:54:32;;;;;;;27.85;12.98;;;;;;;2.83;83.53;98330.84;5002590;28;20414;-81
2022/12/03 05:56:58;;;;;;;28.85;12.77;;;;;;;2.81;83.85;98330.16;5002933;28;20498;-82
2022/12/03 05:59:23;;;;;;;26.48;12.63;;;;;;;2.81;83.79;98335.34;5000404;28;20116;-82
2022/12/03 06:01:49;;;;;;;24.45;12.57;;;;;;;2.74;83.85;98328.31;5002365;28;20053;-81
2022/12/03 06:04:14;;;;;;;28.45;12.55;;;;;;;2.82;83.88;98323.22;5000291;28;20031;-81
2022/12/03 06:06:40;;;;;;;30.15;14.00;;;;;;;2.79;83.60;98326.91;5003485;28;20435;-81
2022/12/03 06:09:05;;;;;;;25.27;12.60;;;;;;;2.62;84.46;98322.50;5002976;28;20109;-82
2022/12/03 06:11:33;;;;;;;28.98;13.23;;;;;;;2.44;84.92;98312.09;5000869;28;20058;-82
2022/12/03 06:13:59;;;;;;;27.23;12.75;;;;;;;2.48;85.21;98310.84;5001362;28;20711;-82
2022/12/03 06:16:25;;;;;;;31.83;13.60;;;;;;;2.46;85.13;98319.72;5003442;28;20034;-81
2022/12/03 06:18:50;;;;;;;29.35;13.68;;;;;;;2.48;85.16;98317.81;5003062;28;20041;-81
2022/12/03 06:21:16;;;;;;;31.77;13.95;;;;;;;2.60;85.36;98327.03;4998932;28;20030;-82
2022/12/03 06:23:43;;;;;;;26.05;13.27;;;;;;;2.68;84.92;98320.16;5001897;28;20100;-81
2022/12/03 06:26:13;;;;;;;30.45;13.63;;;;;;;2.77;84.79;98328.84;5004240;28;20497;-81
2022/12/03 06:28:39;;;;;;;30.65;12.95;;;;;;;2.80;84.60;98323.38;5003864;28;20058;-81
2022/12/03 06:31:05;;;;;;;26.90;12.07;;;;;;;2.84;84.10;98322.13;5002162;28;20045;-81
2022/12/03 06:33:31;;;;;;;30.58;13.77;;;;;;;2.94;84.51;98329.84;5002101;28;20049;-82
2022/12/03 06:35:56;;;;;;;28.17;13.43;;;;;;;2.95;83.87;98319.34;4998774;28;20686;-82
2022/12/03 06:38:22;;;;;;;27.70;13.18;;;;;;;2.83;83.92;98323.09;5003229;28;20910;-81
2022/12/03 06:40:47;;;;;;;26.90;12.73;;;;;;;2.76;84.23;98322.03;5004959;28;20104;-82
2022/12/03 06:43:14;;;;;;;24.67;12.45;;;;;;;2.77;84.38;98333.22;5003595;28;20068;-82
2022/12/03 06:45:39;;;;;;;27.98;13.80;;;;;;;2.70;84.94;98338.16;5001889;28;20108;-81
2022/12/03 06:48:06;;;;;;;24.45;11.65;;;;;;;2.56;84.73;98341.19;5000174;28;20032;-81
2022/12/03 06:50:31;;;;;;;28.85;13.45;;;;;;;2.64;85.29;98347.31;5004687;28;20030;-82
2022/12/03 06:52:57;;;;;;;27.92;13.07;;;;;;;2.66;85.27;98353.16;5007605;28;20454;-82
2022/12/03 06:55:22;;;;;;;27.55;13.25;;;;;;;2.73;85.30;98357.75;5002295;28;20033;-82
2022/12/03 06:57:48;;;;;;;25.08;12.55;;;;;;;2.77;85.18;98359.94;5005980;28;20105;-82
2022/12/03 07:00:14;;;;;;;25.58;13.20;;;;;;;2.74;85.16;98364.56;5006584;28;20030;-83
2022/12/03 07:02:39;;;;;;;26.95;13.18;;;;;;;2.77;85.31;98364.31;5005991;28;20045;-82
2022/12/03 07:05:05;;;;;;;27.90;13.25;;;;;;;2.86;85.24;98374.59;5004012;28;20498;-82
2022/12/03 07:07:31;;;;;;;30.05;14.05;;;;;;;2.86;84.94;98379.78;5005018;28;20036;-82
2022/12/03 07:09:57;;;;;;;27.92;13.23;;;;;;;2.85;84.78;98364.38;5006014;28;20029;-82
2022/12/03 07:12:23;;;;;;;26.80;13.50;;;;;;;2.92;84.45;98375.78;5008049;28;20030;-82
2022/12/03 07:14:48;;;;;;;27.67;12.75;;;;;;;2.92;84.55;98375.78;5004781;28;20969;-82
2022/12/03 07:17:14;;;;;;;24.58;13.50;;;;;;;2.90;84.19;98375.13;5008060;28;20137;-83
2022/12/03 07:19:40;;;;;;;28.20;13.55;;;;;;;2.93;84.47;98382.59;5005003;28;20037;-82
2022/12/03 07:22:05;;;;;;;27.02;12.60;;;;;;;2.97;84.64;98389.13;5004444;28;20042;-82
2022/12/03 07:24:31;;;;;;;28.35;13.40;;;;;;;2.96;84.01;98384.94;5008642;28;20095;-82
2022/12/03 07:26:57;;;;;;;25.13;12.52;;;;;;;2.94;83.65;98371.31;5006105;28;20112;-82
2022/12/03 07:29:23;;;;;;;27.48;13.40;;;;;;;2.92;84.44;98358.47;5002611;28;20042;-82
2022/12/03 07:31:48;;;;;;;27.67;13.55;;;;;;;2.99;84.23;98365.66;5004504;28;20046;-82
2022/12/03 07:34:14;;;;;;;26.40;12.73;;;;;;;2.89;83.60;98368.34;5002983;28;20436;-83
2022/12/03 07:36:39;;;;;;;26.38;13.18;;;;;;;3.00;83.97;98372.47;5006297;28;20042;-82
2022/12/03 07:39:05;;;;;;;25.02;12.65;;;;;;;2.90;83.93;98357.00;5005900;28;20054;-82
2022/12/03 07:41:31;;;;;;;28.02;13.48;;;;;;;3.04;84.28;98371.25;5005062;28;20038;-82
2022/12/03 07:43:56;;;;;;;28.95;13.70;;;;;;;3.07;84.06;98370.97;5005675;28;20029;-82
2022/12/03 07:46:22;;;;;;;27.63;13.13;;;;;;;3.07;84.49;98376.16;5006232;28;20050;-82
2022/12/03 07:48:48;;;;;;;32.25;14.43;;;;;;;3.11;84.18;98372.28;5006799;28;20045;-82
2022/12/03 07:51:13;;;;;;;25.50;12.32;;;;;;;3.11;83.97;98367.09;4996444;28;20064;-82
2022/12/03 07:53:39;;;;;;;27.10;12.25;;;;;;;3.13;83.06;98371.19;5005402;28;20473;-81
2022/12/03 07:56:06;;;;;;;27.30;13.88;;;;;;;3.17;83.14;98369.91;5004334;28;20029;-82
2022/12/03 07:58:31;;;;;;;27.77;12.63;;;;;;;3.22;83.85;98372.09;5004067;28;20042;-82
2022/12/03 08:00:57;;;;;;;26.65;12.38;;;;;;;3.31;83.84;98378.19;5003186;28;20164;-82
2022/12/03 08:03:23;;;;;;;24.27;12.35;;;;;;;3.36;83.10;98374.19;5003846;28;20026;-82
2022/12/03 08:05:49;;;;;;;28.25;13.43;;;;;;;3.41;82.90;98371.94;5003048;28;20069;-82
2022/12/03 08:08:14;;;;;;;27.90;13.25;;;;;;;3.36;82.43;98371.59;5003501;28;20076;-82
2022/12/03 08:10:40;;;;;;;27.85;13.43;;;;;;;3.28;82.51;98365.50;5020955;28;20034;-82
2022/12/03 08:13:13;;;;;;;25.25;12.98;;;;;;;3.31;82.56;98368.63;5003162;28;20366;-82
2022/12/03 08:15:38;;;;;;;26.23;13.95;;;;;;;3.32;82.58;98370.25;5003805;28;20469;-82
2022/12/03 08:18:15;;;;;;;24.75;11.80;;;;;;;3.23;82.45;98361.56;5002207;28;20069;-82
2022/12/03 08:20:44;;;;;;;25.98;12.85;;;;;;;3.31;82.74;98358.25;5001840;28;20068;-82
2022/12/03 08:23:21;;;;;;;25.35;12.68;;;;;;;3.27;83.02;98359.50;5003936;28;20059;-82
2022/12/03 08:25:50;;;;;;;24.65;11.77;;;;;;;3.25;83.16;98355.44;5002070;28;20081;-82
2022/12/03 08:28:25;;;;;;;29.80;13.25;;;;;;;3.31;83.99;98357.44;5003907;28;20030;-83
2022/12/03 08:31:10;;;;;;;25.90;12.65;;;;;;;3.39;84.55;98358.31;5003588;28;20041;-82
2022/12/03 08:33:38;;;;;;;23.52;12.32;;;;;;;3.40;84.33;98361.72;5002708;28;20109;-82
2022/12/03 08:36:22;;;;;;;26.83;12.50;;;;;;;3.38;83.29;98358.47;5001102;28;20811;-82
2022/12/03 08:38:59;;;;;;;26.88;12.52;;;;;;;3.45;83.60;98356.91;5004559;28;20072;-81
2022/12/03 08:44:28;;;;;;;25.23;12.73;;;;;;;3.55;82.85;98346.50;5002236;28;20026;-82
2022/12/03 08:47:18;;;;;;;25.45;12.73;;;;;;;3.56;81.62;98350.69;5005636;28;20039;-82
2022/12/03 08:49:56;;;;;;;26.00;12.85;;;;;;;3.43;82.27;98344.13;5002717;28;20034;-82
2022/12/03 08:52:33;;;;;;;27.38;13.00;;;;;;;3.48;82.41;98343.69;5003151;28;20033;-82
2022/12/03 08:55:09;;;;;;;25.98;12.85;;;;;;;3.52;82.88;98333.81;5003258;28;20549;-82
2022/12/03 08:57:35;;;;;;;26.92;13.63;;;;;;;3.47;82.96;98335.06;5000497;28;20088;-82
2022/12/03 09:00:21;;;;;;;27.42;12.88;;;;;;;3.46;81.23;98340.41;5001509;28;20033;-82
2022/12/03 09:02:54;;;;;;;22.90;11.75;;;;;;;3.53;81.78;98328.47;5004182;28;20596;-83
2022/12/03 09:05:28;;;;;;;28.73;13.25;;;;;;;3.56;83.16;98327.38;5002285;28;20064;-83
2022/12/03 09:07:54;;;;;;;26.90;11.93;;;;;;;3.64;83.23;98327.41;5003161;28;20029;-82
2022/12/03 09:10:20;;;;;;;26.17;12.93;;;;;;;3.65;81.95;98334.22;5001667;28;20044;-83
2022/12/03 09:12:45;;;;;;;26.60;14.20;;;;;;;3.66;81.73;98330.69;5002470;28;20439;-82
2022/12/03 09:15:12;;;;;;;26.65;12.40;;;;;;;3.58;81.43;98340.97;5002712;28;20110;-82
2022/12/03 09:17:37;;;;;;;31.05;14.05;;;;;;;3.60;82.92;98347.66;5002466;28;20158;-82
2022/12/03 09:20:04;;;;;;;26.60;12.43;;;;;;;3.51;81.37;98351.16;5003541;28;20117;-82
2022/12/03 09:22:30;;;;;;;28.58;13.73;;;;;;;3.66;82.91;98351.44;5001684;28;20069;-82
2022/12/03 09:24:55;;;;;;;25.80;12.48;;;;;;;3.70;82.57;98343.19;5000770;28;20048;-82
2022/12/03 09:27:21;;;;;;;29.27;14.55;;;;;;;3.75;82.00;98355.72;5003465;28;20058;-82
2022/12/03 09:29:48;;;;;;;29.27;13.45;;;;;;;3.85;82.79;98360.84;5004002;28;20355;-82
2022/12/03 09:32:14;;;;;;;27.10;13.15;;;;;;;3.75;81.39;98353.94;5000795;28;20557;-82
2022/12/03 09:34:41;;;;;;;23.50;12.40;;;;;;;3.64;81.03;98348.97;4998547;28;20042;-82
2022/12/03 09:37:07;;;;;;;28.98;13.55;;;;;;;3.68;82.27;98349.50;5000678;28;20042;-82
2022/12/03 09:39:33;;;;;;;26.38;13.02;;;;;;;3.71;83.43;98354.38;5002883;28;20088;-82
2022/12/03 09:41:59;;;;;;;26.48;12.15;;;;;;;3.77;82.50;98351.19;5002423;28;20061;-82
2022/12/03 09:44:28;;;;;;;27.75;13.35;;;;;;;3.84;82.81;98347.06;5001721;28;20041;-82
2022/12/03 09:46:58;;;;;;;27.42;13.68;;;;;;;3.98;82.67;98354.28;5000570;28;20040;-82
2022/12/03 09:49:26;;;;;;;26.63;12.93;;;;;;;4.02;82.81;98353.03;4999346;28;20053;-82
2022/12/03 09:51:56;;;;;;;25.42;12.57;;;;;;;4.08;81.45;98341.22;5000280;28;20046;-81
2022/12/03 09:54:26;;;;;;;24.25;11.85;;;;;;;4.06;81.11;98343.13;5003462;28;20517;-82
2022/12/03 09:56:55;;;;;;;28.83;13.35;;;;;;;4.08;82.60;98342.97;5000334;28;20057;-82
2022/12/03 09:59:26;;;;;;;25.58;11.75;;;;;;;4.08;81.89;98341.22;4996340;28;20084;-82
2022/12/03 10:01:53;;;;;;;28.00;13.00;;;;;;;4.19;82.72;98345.31;5000653;28;20033;-82
2022/12/03 10:04:19;;;;;;;27.10;13.00;;;;;;;4.18;81.74;98341.91;5003101;28;20026;-82
2022/12/03 10:06:45;;;;;;;27.00;13.75;;;;;;;4.20;80.83;98344.38;5003571;28;20397;-82
2022/12/03 10:09:16;;;;;;;25.63;12.95;;;;;;;4.29;82.24;98339.06;5000851;28;20029;-82
2022/12/03 10:11:42;;;;;;;27.15;12.52;;;;;;;4.36;81.61;98341.06;5002217;28;20030;-82
2022/12/03 10:14:13;;;;;;;24.77;13.15;;;;;;;4.12;78.88;98315.75;4998414;28;20034;-82
2022/12/03 10:16:40;;;;;;;29.98;13.15;;;;;;;4.18;79.98;98330.72;5002673;28;20049;-82
2022/12/03 10:19:18;;;;;;;29.63;13.02;;;;;;;4.08;80.78;98323.06;5000742;28;20034;-82
2022/12/03 10:21:43;;;;;;;28.08;13.00;;;;;;;4.12;81.98;98318.34;5000877;28;20125;-82
2022/12/03 10:24:30;;;;;;;27.48;13.57;;;;;;;4.11;79.92;98320.13;5002324;28;20052;-82
2022/12/03 10:26:59;;;;;;;30.10;13.80;;;;;;;4.18;80.36;98325.53;5000386;28;20030;-82
2022/12/03 10:29:34;;;;;;;26.90;13.90;;;;;;;4.20;80.82;98318.41;5003903;28;20061;-82
2022/12/03 10:32:03;;;;;;;32.03;14.95;;;;;;;4.12;79.65;98318.34;5002562;28;20069;-82
2022/12/03 10:34:35;;;;;;;32.50;14.88;;;;;;;4.05;79.96;98306.97;4997509;28;20034;-82
2022/12/03 10:37:15;;;;;;;26.67;13.95;;;;;;;3.86;81.33;98298.41;5017583;28;20113;-82
2022/12/03 10:40:22;;;;;;;30.90;15.37;;;;;;;3.94;81.93;98280.28;5002183;28;20464;-82
2022/12/03 10:42:48;;;;;;;26.77;11.60;;;;;;;3.91;80.57;98278.00;5000085;28;20036;-83
2022/12/03 10:45:21;;;;;;;24.33;13.13;;;;;;;3.91;81.72;98264.22;5000356;28;20128;-82
2022/12/03 10:48:24;;;;;;;26.42;13.10;;;;;;;4.06;82.76;98269.66;5001525;28;20133;-83
2022/12/03 10:50:54;;;;;;;28.92;13.25;;;;;;;4.10;81.42;98273.56;4999546;28;20093;-82
2022/12/03 10:53:27;;;;;;;25.70;13.30;;;;;;;4.16;82.78;98275.56;5000963;28;20422;-82
2022/12/03 10:55:58;;;;;;;22.40;11.25;;;;;;;4.30;81.70;98274.97;5002783;28;20034;-82
2022/12/03 10:58:30;;;;;;;34.23;16.73;;;;;;;4.15;80.46;98268.75;5001504;28;20418;-81
2022/12/03 11:01:00;;;;;;;27.95;13.30;;;;;;;4.17;79.62;98261.59;5001341;28;20281;-82
2022/12/03 11:03:32;;;;;;;25.77;12.40;;;;;;;4.31;82.02;98261.00;4998793;28;20043;-82
2022/12/03 11:06:01;;;;;;;23.63;12.02;;;;;;;4.39;81.05;98262.84;5001656;28;20041;-82
2022/12/03 11:08:34;;;;;;;19.50;10.57;;;;;;;4.40;81.02;98257.50;5000237;28;20081;-82
2022/12/03 11:11:03;;;;;;;20.73;11.25;;;;;;;4.46;81.30;98262.06;5000661;28;20033;-82
2022/12/03 11:13:43;;;;;;;23.95;11.63;;;;;;;4.53;81.46;98264.84;5000802;28;20039;-82
2022/12/03 11:16:08;;;;;;;20.27;10.80;;;;;;;4.46;80.79;98263.84;5002552;28;20515;-82
2022/12/03 11:18:37;;;;;;;22.67;11.15;;;;;;;4.47;80.39;98263.69;5001618;28;20041;-82
2022/12/03 11:21:12;;;;;;;20.85;10.30;;;;;;;4.45;80.36;98265.63;5001179;28;20092;-82
2022/12/03 11:23:43;;;;;;;19.75;10.73;;;;;;;4.49;80.25;98255.72;4998270;28;20037;-82
2022/12/03 11:26:25;;;;;;;;;;;;;;;4.56;80.58;98259.34;5002112;28;20045;-82
2022/12/03 11:28:56;;;;;;;21.35;10.43;;;;;;;4.55;79.45;98261.09;5002028;28;19913;-82
2022/12/03 11:31:45;;;;;;;21.48;10.63;;;;;;;4.45;78.63;98251.84;4996334;28;20368;-83
2022/12/03 11:34:19;;;;;;;20.33;10.98;;;;;;;4.46;80.01;98262.06;4998993;28;20424;-82
2022/12/03 11:37:10;;;;;;;19.63;10.40;;;;;;;4.44;79.70;98251.03;4998795;28;20115;-82
2022/12/03 11:39:48;;;;;;;21.02;10.90;;;;;;;4.44;80.00;98248.44;5003165;28;20132;-82
2022/12/03 11:42:25;;;;;;;17.27;8.80;;;;;;;4.43;78.17;98240.78;5004419;28;20033;-82
2022/12/03 11:45:03;;;;;;;13.30;8.18;;;;;;;4.23;76.45;98230.63;5005645;28;20486;-82
2022/12/03 11:47:39;;;;;;;16.45;8.68;;;;;;;4.22;77.79;98231.59;5003959;28;20065;-83
2022/12/03 11:50:25;;;;;;;15.57;8.20;;;;;;;4.22;77.38;98234.22;5001027;28;20038;-82
2022/12/03 11:53:19;;;;;;;14.63;8.05;;;;;;;4.16;77.73;98241.81;5004251;28;20060;-83
2022/12/03 11:55:58;;;;;;;14.15;7.70;;;;;;;4.24;78.21;98227.06;5002669;28;20493;-82
2022/12/03 11:58:29;;;;;;;15.93;8.05;;;;;;;4.23;77.21;98222.03;5004570;28;20144;-83